Time,TemperatureF,DewpointF,PressureIn,WindDirection,WindDirectionDegrees,WindSpeedMPH,WindSpeedGustMPH,Humidity,HourlyPrecipIn,Conditions,Clouds,dailyrainin,SoftwareType,DateUTC
2013-07-12 00:03:00,77.9,46.6,30.68,SSW,202,3.0,9.0,33,0.00,,,0.00,meteohub,2013-07-12 06:03:00,
2013-07-12 00:08:00,77.7,46.4,30.68,SSW,202,2.0,7.0,33,0.00,,,0.00,meteohub,2013-07-12 06:08:00,
2013-07-12 00:13:00,77.5,46.2,30.65,WSW,248,0.0,5.0,33,0.00,,,0.00,meteohub,2013-07-12 06:13:00,
2013-07-12 00:18:00,77.0,45.7,30.65,NNW,338,2.0,4.0,33,0.00,,,0.00,meteohub,2013-07-12 06:18:00,
2013-07-12 00:23:00,76.8,45.5,30.65,NNW,338,2.0,3.0,33,0.00,,,0.00,meteohub,2013-07-12 06:23:00,
2013-07-12 00:28:00,76.8,45.5,30.65,WNW,292,3.0,3.0,33,0.00,,,0.00,meteohub,2013-07-12 06:28:00,
2013-07-12 00:33:00,76.8,45.5,30.65,WNW,292,3.0,3.0,33,0.00,,,0.00,meteohub,2013-07-12 06:33:00,
2013-07-12 00:38:00,76.8,45.5,30.65,WNW,292,3.0,3.0,33,0.00,,,0.00,meteohub,2013-07-12 06:38:00,
2013-07-12 00:43:00,77.4,45.1,30.65,NNW,338,4.0,4.0,32,0.00,,,0.00,meteohub,2013-07-12 06:43:00,
2013-07-12 00:48:00,77.5,45.3,30.65,NNW,338,4.0,6.0,32,0.00,,,0.00,meteohub,2013-07-12 06:48:00,
2013-07-12 00:53:00,77.5,45.3,30.65,WNW,292,3.0,6.0,32,0.00,,,0.00,meteohub,2013-07-12 06:53:00,
2013-07-12 00:59:00,77.9,45.7,30.65,WNW,292,4.0,6.0,32,0.00,,,0.00,meteohub,2013-07-12 06:59:00,
2013-07-12 01:04:00,78.1,45.9,30.65,NNW,338,1.0,6.0,32,0.00,,,0.00,meteohub,2013-07-12 07:04:00,
2013-07-12 01:09:00,77.9,45.7,30.65,NNE,22,1.0,6.0,32,0.00,,,0.00,meteohub,2013-07-12 07:09:00,
2013-07-12 01:14:00,77.7,45.5,30.62,SSE,158,2.0,6.0,32,0.00,,,0.00,meteohub,2013-07-12 07:14:00,
2013-07-12 01:19:00,77.2,45.1,30.62,ESE,112,3.0,4.0,32,0.00,,,0.00,meteohub,2013-07-12 07:19:00,
2013-07-12 01:24:00,76.8,45.5,30.62,SE,135,3.0,4.0,33,0.00,,,0.00,meteohub,2013-07-12 07:24:00,
2013-07-12 01:29:00,76.5,45.3,30.65,SSE,158,5.0,5.0,33,0.00,,,0.00,meteohub,2013-07-12 07:29:00,
2013-07-12 01:34:00,75.9,44.8,30.65,East,90,1.0,5.0,33,0.00,,,0.00,meteohub,2013-07-12 07:34:00,
2013-07-12 01:39:00,75.4,44.2,30.65,SSE,158,3.0,5.0,33,0.00,,,0.00,meteohub,2013-07-12 07:39:00,
2013-07-12 01:44:00,75.4,44.2,30.62,SE,135,0.0,5.0,33,0.00,,,0.00,meteohub,2013-07-12 07:44:00,
2013-07-12 01:49:00,75.0,44.8,30.62,ESE,112,1.0,5.0,34,0.00,,,0.00,meteohub,2013-07-12 07:49:00,
2013-07-12 01:54:00,74.5,44.2,30.62,ESE,112,2.0,4.0,34,0.00,,,0.00,meteohub,2013-07-12 07:54:00,
2013-07-12 01:59:00,74.1,44.1,30.65,ENE,68,0.0,3.0,34,0.00,,,0.00,meteohub,2013-07-12 07:59:00,
2013-07-12 02:04:00,73.8,43.7,30.65,NNE,22,2.0,3.0,34,0.00,,,0.00,meteohub,2013-07-12 08:04:00,
2013-07-12 02:09:00,73.9,43.9,30.65,NNW,338,2.0,3.0,34,0.00,,,0.00,meteohub,2013-07-12 08:09:00,
2013-07-12 02:15:00,73.2,43.9,30.65,NNW,338,1.0,2.0,35,0.00,,,0.00,meteohub,2013-07-12 08:15:00,
2013-07-12 02:20:00,73.6,43.5,30.65,NNE,22,1.0,3.0,34,0.00,,,0.00,meteohub,2013-07-12 08:20:00,
2013-07-12 02:25:00,74.1,44.1,30.65,ENE,68,1.0,4.0,34,0.00,,,0.00,meteohub,2013-07-12 08:25:00,
2013-07-12 02:30:00,75.0,44.8,30.62,WSW,248,3.0,4.0,34,0.00,,,0.00,meteohub,2013-07-12 08:30:00,
2013-07-12 02:35:00,74.7,44.4,30.62,NNE,22,0.0,4.0,34,0.00,,,0.00,meteohub,2013-07-12 08:35:00,
2013-07-12 02:40:00,74.5,44.2,30.62,NNE,22,2.0,4.0,34,0.00,,,0.00,meteohub,2013-07-12 08:40:00,
2013-07-12 02:45:00,75.4,45.1,30.62,WSW,248,3.0,6.0,34,0.00,,,0.00,meteohub,2013-07-12 08:45:00,
2013-07-12 02:50:00,76.5,46.0,30.62,NNW,338,4.0,8.0,34,0.00,,,0.00,meteohub,2013-07-12 08:50:00,
2013-07-12 02:55:00,77.0,45.7,30.62,NW,315,1.0,8.0,33,0.00,,,0.00,meteohub,2013-07-12 08:55:00,
2013-07-12 03:00:00,77.0,45.7,30.62,NNW,338,3.0,8.0,33,0.00,,,0.00,meteohub,2013-07-12 09:00:00,
2013-07-12 03:05:00,76.8,45.5,30.62,NNE,22,3.0,8.0,33,0.00,,,0.00,meteohub,2013-07-12 09:05:00,
2013-07-12 03:10:00,76.8,45.5,30.62,NNW,338,1.0,8.0,33,0.00,,,0.00,meteohub,2013-07-12 09:10:00,
2013-07-12 03:15:00,77.2,45.9,30.62,NNW,338,4.0,7.0,33,0.00,,,0.00,meteohub,2013-07-12 09:15:00,
2013-07-12 03:20:00,77.9,46.6,30.62,WNW,292,4.0,11.0,33,0.00,,,0.00,meteohub,2013-07-12 09:20:00,
2013-07-12 03:25:00,77.9,46.6,30.62,WNW,292,4.0,11.0,33,0.00,,,0.00,meteohub,2013-07-12 09:25:00,
2013-07-12 03:31:00,77.9,45.7,30.62,WNW,292,5.0,11.0,32,0.00,,,0.00,meteohub,2013-07-12 09:31:00,
2013-07-12 03:36:00,77.7,45.5,30.62,NNW,338,5.0,8.0,32,0.00,,,0.00,meteohub,2013-07-12 09:36:00,
2013-07-12 03:41:00,77.2,45.1,30.62,NNW,338,4.0,7.0,32,0.00,,,0.00,meteohub,2013-07-12 09:41:00,
2013-07-12 03:46:00,77.0,45.0,30.62,SSW,202,2.0,6.0,32,0.00,,,0.00,meteohub,2013-07-12 09:46:00,
2013-07-12 03:51:00,76.8,45.5,30.62,ESE,112,0.0,5.0,33,0.00,,,0.00,meteohub,2013-07-12 09:51:00,
2013-07-12 03:56:00,75.9,44.8,30.62,ESE,112,0.0,5.0,33,0.00,,,0.00,meteohub,2013-07-12 09:56:00,
2013-07-12 04:01:00,75.7,44.6,30.62,NNE,22,1.0,3.0,33,0.00,,,0.00,meteohub,2013-07-12 10:01:00,
2013-07-12 04:06:00,74.8,43.9,30.62,ESE,112,2.0,3.0,33,0.00,,,0.00,meteohub,2013-07-12 10:06:00,
2013-07-12 04:11:00,74.1,44.1,30.62,NNW,338,2.0,2.0,34,0.00,,,0.00,meteohub,2013-07-12 10:11:00,
2013-07-12 04:16:00,73.2,43.2,30.62,ESE,112,2.0,3.0,34,0.00,,,0.00,meteohub,2013-07-12 10:16:00,
2013-07-12 04:21:00,73.0,43.0,30.62,WSW,248,0.0,3.0,34,0.00,,,0.00,meteohub,2013-07-12 10:21:00,
2013-07-12 04:26:00,72.3,43.2,30.62,ESE,112,4.0,4.0,35,0.00,,,0.00,meteohub,2013-07-12 10:26:00,
2013-07-12 04:31:00,71.8,42.6,30.62,NE,45,1.0,4.0,35,0.00,,,0.00,meteohub,2013-07-12 10:31:00,
2013-07-12 04:36:00,71.4,42.4,30.62,ENE,68,0.0,4.0,35,0.00,,,0.00,meteohub,2013-07-12 10:36:00,
2013-07-12 04:41:00,70.9,41.9,30.62,NNW,338,2.0,4.0,35,0.00,,,0.00,meteohub,2013-07-12 10:41:00,
2013-07-12 04:47:00,70.9,41.9,30.62,NNE,22,1.0,4.0,35,0.00,,,0.00,meteohub,2013-07-12 10:47:00,
2013-07-12 04:52:00,70.9,42.6,30.62,NNW,338,1.0,4.0,36,0.00,,,0.00,meteohub,2013-07-12 10:52:00,
2013-07-12 04:57:00,70.7,42.4,30.62,NNE,22,3.0,4.0,36,0.00,,,0.00,meteohub,2013-07-12 10:57:00,
2013-07-12 05:02:00,71.4,43.2,30.62,NNE,22,3.0,4.0,36,0.00,,,0.00,meteohub,2013-07-12 11:02:00,
2013-07-12 05:07:00,71.4,43.2,30.62,NNE,22,4.0,4.0,36,0.00,,,0.00,meteohub,2013-07-12 11:07:00,
2013-07-12 05:12:00,71.2,43.0,30.62,NNE,22,2.0,4.0,36,0.00,,,0.00,meteohub,2013-07-12 11:12:00,
2013-07-12 05:17:00,71.2,43.0,30.62,NNE,22,0.0,4.0,36,0.00,,,0.00,meteohub,2013-07-12 11:17:00,
2013-07-12 05:22:00,71.4,43.2,30.62,NNW,338,1.0,4.0,36,0.00,,,0.00,meteohub,2013-07-12 11:22:00,
2013-07-12 05:27:00,71.8,42.6,30.62,ENE,68,1.0,3.0,35,0.00,,,0.00,meteohub,2013-07-12 11:27:00,
2013-07-12 05:32:00,71.6,43.3,30.65,ESE,112,1.0,3.0,36,0.00,,,0.00,meteohub,2013-07-12 11:32:00,
2013-07-12 05:37:00,71.4,43.2,30.65,ESE,112,2.0,3.0,36,0.00,,,0.00,meteohub,2013-07-12 11:37:00,
2013-07-12 05:42:00,71.4,43.2,30.65,ESE,112,0.0,3.0,36,0.00,,,0.00,meteohub,2013-07-12 11:42:00,
2013-07-12 05:47:00,70.3,42.1,30.65,NNW,338,2.0,3.0,36,0.00,,,0.00,meteohub,2013-07-12 11:47:00,
2013-07-12 05:52:00,70.0,42.6,30.65,NNE,22,2.0,3.0,37,0.00,,,0.00,meteohub,2013-07-12 11:52:00,
2013-07-12 05:57:00,70.3,42.8,30.65,NNE,22,3.0,3.0,37,0.00,,,0.00,meteohub,2013-07-12 11:57:00,
2013-07-12 06:02:00,70.7,43.2,30.65,NNE,22,1.0,3.0,37,0.00,,,0.00,meteohub,2013-07-12 12:02:00,
2013-07-12 06:07:00,70.5,43.0,30.65,East,90,0.0,3.0,37,0.00,,,0.00,meteohub,2013-07-12 12:07:00,
2013-07-12 06:12:00,71.4,43.9,30.65,East,90,3.0,3.0,37,0.00,,,0.00,meteohub,2013-07-12 12:12:00,
2013-07-12 06:17:00,72.0,44.2,30.65,ENE,68,3.0,5.0,37,0.00,,,0.00,meteohub,2013-07-12 12:17:00,
2013-07-12 06:22:00,71.6,44.1,30.65,NNW,338,2.0,5.0,37,0.00,,,0.00,meteohub,2013-07-12 12:22:00,
2013-07-12 06:27:00,71.2,43.7,30.65,NNW,338,1.0,5.0,37,0.00,,,0.00,meteohub,2013-07-12 12:27:00,
2013-07-12 06:32:00,71.4,43.9,30.65,East,90,3.0,3.0,37,0.00,,,0.00,meteohub,2013-07-12 12:32:00,
2013-07-12 06:37:00,71.2,44.4,30.65,NE,45,0.0,3.0,38,0.00,,,0.00,meteohub,2013-07-12 12:37:00,
2013-07-12 06:42:00,70.9,44.1,30.65,ESE,112,0.0,3.0,38,0.00,,,0.00,meteohub,2013-07-12 12:42:00,
2013-07-12 06:47:00,70.9,44.1,30.65,NE,45,0.0,3.0,38,0.00,,,0.00,meteohub,2013-07-12 12:47:00,
2013-07-12 06:52:00,70.9,44.8,30.65,SSW,202,0.0,2.0,39,0.00,,,0.00,meteohub,2013-07-12 12:52:00,
2013-07-12 06:57:00,71.1,45.5,30.65,ESE,112,2.0,3.0,40,0.00,,,0.00,meteohub,2013-07-12 12:57:00,
2013-07-12 07:02:00,71.6,45.3,30.65,SE,135,3.0,3.0,39,0.00,,,0.00,meteohub,2013-07-12 13:02:00,
2013-07-12 07:07:00,72.0,46.4,30.65,SSE,158,3.0,4.0,40,0.00,,,0.00,meteohub,2013-07-12 13:07:00,
2013-07-12 07:12:00,72.3,46.6,30.65,SSE,158,4.0,4.0,40,0.00,,,0.00,meteohub,2013-07-12 13:12:00,
2013-07-12 07:17:00,72.7,46.9,30.62,South,180,3.0,5.0,40,0.00,,,0.00,meteohub,2013-07-12 13:17:00,
2013-07-12 07:22:00,73.0,47.3,30.62,SSW,202,3.0,5.0,40,0.00,,,0.00,meteohub,2013-07-12 13:22:00,
2013-07-12 07:27:00,73.4,47.7,30.62,SSE,158,3.0,5.0,40,0.00,,,0.00,meteohub,2013-07-12 13:27:00,
2013-07-12 07:32:00,74.1,48.2,30.65,South,180,2.0,4.0,40,0.00,,,0.00,meteohub,2013-07-12 13:32:00,
2013-07-12 07:37:00,75.9,49.3,30.65,SSE,158,3.0,4.0,39,0.00,,,0.00,meteohub,2013-07-12 13:37:00,
2013-07-12 07:42:00,75.4,48.7,30.65,SSW,202,0.0,4.0,39,0.00,,,0.00,meteohub,2013-07-12 13:42:00,
2013-07-12 07:47:00,75.0,49.1,30.65,ESE,112,1.0,4.0,40,0.00,,,0.00,meteohub,2013-07-12 13:47:00,
2013-07-12 07:52:00,75.4,48.7,30.65,SSE,158,2.0,3.0,39,0.00,,,0.00,meteohub,2013-07-12 13:52:00,
2013-07-12 07:57:00,76.8,50.0,30.65,SSE,158,3.0,3.0,39,0.00,,,0.00,meteohub,2013-07-12 13:57:00,
2013-07-12 08:02:00,77.2,49.6,30.65,SSE,158,3.0,4.0,38,0.00,,,0.00,meteohub,2013-07-12 14:02:00,
2013-07-12 08:07:00,76.5,48.9,30.65,SSE,158,3.0,4.0,38,0.00,,,0.00,meteohub,2013-07-12 14:07:00,
2013-07-12 08:12:00,75.7,48.4,30.65,SSE,158,2.0,4.0,38,0.00,,,0.00,meteohub,2013-07-12 14:12:00,
2013-07-12 08:17:00,75.6,48.2,30.68,SSW,202,5.0,5.0,38,0.00,,,0.00,meteohub,2013-07-12 14:17:00,
2013-07-12 08:22:00,74.7,48.0,30.68,SSW,202,4.0,6.0,39,0.00,,,0.00,meteohub,2013-07-12 14:22:00,
2013-07-12 08:27:00,74.3,47.8,30.68,SSW,202,3.0,6.0,39,0.00,,,0.00,meteohub,2013-07-12 14:27:00,
2013-07-12 08:32:00,74.1,47.7,30.71,SSW,202,1.0,6.0,39,0.00,,,0.00,meteohub,2013-07-12 14:32:00,
2013-07-12 08:37:00,74.3,47.8,30.71,SSE,158,1.0,5.0,39,0.00,,,0.00,meteohub,2013-07-12 14:37:00,
2013-07-12 08:42:00,74.3,48.4,30.71,SSE,158,1.0,5.0,40,0.00,,,0.00,meteohub,2013-07-12 14:42:00,
2013-07-12 08:47:00,74.3,48.4,30.68,SSW,202,2.0,3.0,40,0.00,,,0.00,meteohub,2013-07-12 14:47:00,
2013-07-12 08:52:00,74.3,48.4,30.68,SSW,202,3.0,4.0,40,0.00,,,0.00,meteohub,2013-07-12 14:52:00,
2013-07-12 08:57:00,74.1,48.2,30.68,South,180,4.0,5.0,40,0.00,,,0.00,meteohub,2013-07-12 14:57:00,
2013-07-12 09:02:00,74.3,49.1,30.71,SSE,158,4.0,5.0,41,0.00,,,0.00,meteohub,2013-07-12 15:02:00,
2013-07-12 09:07:00,74.7,49.5,30.71,South,180,4.0,6.0,41,0.00,,,0.00,meteohub,2013-07-12 15:07:00,
2013-07-12 09:12:00,74.8,49.6,30.71,SSE,158,2.0,6.0,41,0.00,,,0.00,meteohub,2013-07-12 15:12:00,
2013-07-12 09:17:00,75.2,49.3,30.71,SSE,158,3.0,6.0,40,0.00,,,0.00,meteohub,2013-07-12 15:17:00,
2013-07-12 09:22:00,75.6,49.6,30.71,SSW,202,1.0,4.0,40,0.00,,,0.00,meteohub,2013-07-12 15:22:00,
2013-07-12 09:27:00,76.3,49.5,30.71,WNW,292,2.0,4.0,39,0.00,,,0.00,meteohub,2013-07-12 15:27:00,
2013-07-12 09:32:00,76.5,49.6,30.71,WSW,248,1.0,4.0,39,0.00,,,0.00,meteohub,2013-07-12 15:32:00,
2013-07-12 09:38:00,76.6,49.8,30.71,WSW,248,2.0,5.0,39,0.00,,,0.00,meteohub,2013-07-12 15:38:00,
2013-07-12 09:43:00,77.4,49.8,30.71,SW,225,3.0,5.0,38,0.00,,,0.00,meteohub,2013-07-12 15:43:00,
2013-07-12 09:48:00,78.4,50.7,30.71,SSW,202,4.0,5.0,38,0.00,,,0.00,meteohub,2013-07-12 15:48:00,
2013-07-12 09:53:00,78.6,50.9,30.71,SSW,202,1.0,5.0,38,0.00,,,0.00,meteohub,2013-07-12 15:53:00,
2013-07-12 09:58:00,78.8,50.4,30.71,SSW,202,2.0,5.0,37,0.00,,,0.00,meteohub,2013-07-12 15:58:00,
2013-07-12 10:03:00,78.6,50.2,30.71,SSW,202,4.0,6.0,37,0.00,,,0.00,meteohub,2013-07-12 16:03:00,
2013-07-12 10:08:00,78.8,50.4,30.71,SSE,158,3.0,6.0,37,0.00,,,0.00,meteohub,2013-07-12 16:08:00,
2013-07-12 10:13:00,80.1,51.4,30.71,SSW,202,3.0,6.0,37,0.00,,,0.00,meteohub,2013-07-12 16:13:00,
2013-07-12 10:18:00,81.5,52.0,30.71,SSW,202,4.0,5.0,36,0.00,,,0.00,meteohub,2013-07-12 16:18:00,
2013-07-12 10:23:00,82.2,51.8,30.71,WSW,248,3.0,4.0,35,0.00,,,0.00,meteohub,2013-07-12 16:23:00,
2013-07-12 10:28:00,84.0,52.7,30.71,NNE,22,2.0,6.0,34,0.00,,,0.00,meteohub,2013-07-12 16:28:00,
2013-07-12 10:33:00,84.0,52.7,30.71,SSW,202,3.0,6.0,34,0.00,,,0.00,meteohub,2013-07-12 16:33:00,
2013-07-12 10:38:00,84.2,52.0,30.71,SSE,158,4.0,6.0,33,0.00,,,0.00,meteohub,2013-07-12 16:38:00,
2013-07-12 10:43:00,84.6,52.3,30.71,WSW,248,2.0,6.0,33,0.00,,,0.00,meteohub,2013-07-12 16:43:00,
2013-07-12 10:49:00,84.7,52.5,30.71,SSE,158,3.0,6.0,33,0.00,,,0.00,meteohub,2013-07-12 16:49:00,
2013-07-12 10:54:00,86.4,53.1,30.71,SSW,202,6.0,6.0,32,0.00,,,0.00,meteohub,2013-07-12 16:54:00,
2013-07-12 11:00:00,86.7,54.1,30.71,South,180,4.0,8.0,33,0.00,,,0.00,meteohub,2013-07-12 17:00:00,
2013-07-12 11:05:00,87.4,54.0,30.71,SSW,202,2.0,9.0,32,0.00,,,0.00,meteohub,2013-07-12 17:05:00,
2013-07-12 11:11:00,88.5,54.9,30.71,SSW,202,6.0,9.0,32,0.00,,,0.00,meteohub,2013-07-12 17:11:00,
2013-07-12 11:16:00,90.3,55.6,30.74,SSE,158,6.0,10.0,31,0.00,,,0.00,meteohub,2013-07-12 17:16:00,
2013-07-12 11:21:00,90.9,56.1,30.74,SSE,158,13.0,13.0,31,0.00,,,0.00,meteohub,2013-07-12 17:21:00,
2013-07-12 11:27:00,90.0,55.2,30.74,SE,135,9.0,13.0,31,0.00,,,0.00,meteohub,2013-07-12 17:27:00,
2013-07-12 11:32:00,90.5,54.9,30.71,South,180,6.0,13.0,30,0.00,,,0.00,meteohub,2013-07-12 17:32:00,
2013-07-12 11:37:00,90.5,54.9,30.71,SSE,158,5.0,13.0,30,0.00,,,0.00,meteohub,2013-07-12 17:37:00,
2013-07-12 11:42:00,91.2,55.4,30.71,SSE,158,6.0,11.0,30,0.00,,,0.00,meteohub,2013-07-12 17:42:00,
2013-07-12 11:47:00,91.0,55.2,30.74,SSE,158,7.0,10.0,30,0.00,,,0.00,meteohub,2013-07-12 17:47:00,
2013-07-12 11:52:00,91.0,55.2,30.74,SSE,158,10.0,10.0,30,0.00,,,0.00,meteohub,2013-07-12 17:52:00,
2013-07-12 11:57:00,92.7,56.7,30.74,ESE,112,3.0,13.0,30,0.00,,,0.00,meteohub,2013-07-12 17:57:00,
2013-07-12 12:02:00,92.1,55.2,30.71,SSE,158,6.0,13.0,29,0.00,,,0.00,meteohub,2013-07-12 18:02:00,
2013-07-12 12:07:00,92.3,55.4,30.71,South,180,8.0,13.0,29,0.00,,,0.00,meteohub,2013-07-12 18:07:00,
2013-07-12 12:13:00,92.5,55.6,30.71,SSW,202,6.0,13.0,29,0.00,,,0.00,meteohub,2013-07-12 18:13:00,
2013-07-12 12:18:00,92.8,55.9,30.71,South,180,6.0,13.0,29,0.00,,,0.00,meteohub,2013-07-12 18:18:00,
2013-07-12 12:23:00,92.8,55.9,30.71,ENE,68,6.0,13.0,29,0.00,,,0.00,meteohub,2013-07-12 18:23:00,
2013-07-12 12:28:00,93.0,55.0,30.71,SE,135,13.0,13.0,28,0.00,,,0.00,meteohub,2013-07-12 18:28:00,
2013-07-12 12:33:00,92.7,54.9,30.71,SSE,158,6.0,12.0,28,0.00,,,0.00,meteohub,2013-07-12 18:33:00,
2013-07-12 12:39:00,92.1,54.3,30.71,SSW,202,3.0,15.0,28,0.00,,,0.00,meteohub,2013-07-12 18:39:00,
2013-07-12 12:44:00,92.8,54.9,30.71,SSW,202,6.0,15.0,28,0.00,,,0.00,meteohub,2013-07-12 18:44:00,
2013-07-12 12:50:00,93.7,55.8,30.71,SSE,158,8.0,15.0,28,0.00,,,0.00,meteohub,2013-07-12 18:50:00,
2013-07-12 12:55:00,93.2,55.2,30.71,SSE,158,8.0,13.0,28,0.00,,,0.00,meteohub,2013-07-12 18:55:00,
2013-07-12 13:01:00,94.1,55.9,30.68,SSW,202,4.0,13.0,28,0.00,,,0.00,meteohub,2013-07-12 19:01:00,
2013-07-12 13:06:00,93.7,55.8,30.68,SSW,202,8.0,13.0,28,0.00,,,0.00,meteohub,2013-07-12 19:06:00,
2013-07-12 13:11:00,94.3,56.1,30.68,SSE,158,3.0,13.0,28,0.00,,,0.00,meteohub,2013-07-12 19:11:00,
2013-07-12 13:16:00,92.3,54.5,30.68,SSW,202,3.0,13.0,28,0.00,,,0.00,meteohub,2013-07-12 19:16:00,
2013-07-12 13:22:00,89.2,52.9,30.68,SSE,158,6.0,13.0,29,0.00,,,0.00,meteohub,2013-07-12 19:22:00,
2013-07-12 13:27:00,87.6,52.3,30.68,South,180,8.0,11.0,30,0.00,,,0.00,meteohub,2013-07-12 19:27:00,
2013-07-12 13:32:00,86.9,51.8,30.68,SSW,202,6.0,12.0,30,0.00,,,0.00,meteohub,2013-07-12 19:32:00,
2013-07-12 13:37:00,86.5,51.4,30.68,SSW,202,4.0,12.0,30,0.00,,,0.00,meteohub,2013-07-12 19:37:00,
2013-07-12 13:42:00,86.2,51.1,30.68,South,180,5.0,12.0,30,0.00,,,0.00,meteohub,2013-07-12 19:42:00,
2013-07-12 13:47:00,85.8,51.6,30.68,SSW,202,8.0,11.0,31,0.00,,,0.00,meteohub,2013-07-12 19:47:00,
2013-07-12 13:52:00,85.3,51.3,30.68,South,180,6.0,11.0,31,0.00,,,0.00,meteohub,2013-07-12 19:52:00,
2013-07-12 13:57:00,84.9,50.9,30.68,SSW,202,4.0,9.0,31,0.00,,,0.00,meteohub,2013-07-12 19:57:00,
2013-07-12 14:02:00,84.9,50.9,30.71,WSW,248,3.0,8.0,31,0.00,,,0.00,meteohub,2013-07-12 20:02:00,
2013-07-12 14:07:00,85.1,51.1,30.71,SSE,158,4.0,8.0,31,0.00,,,0.00,meteohub,2013-07-12 20:07:00,
2013-07-12 14:12:00,84.0,51.1,30.71,WNW,292,4.0,11.0,32,0.00,,,0.00,meteohub,2013-07-12 20:12:00,
2013-07-12 14:17:00,82.9,50.0,30.71,NNW,338,4.0,11.0,32,0.00,,,0.00,meteohub,2013-07-12 20:17:00,
2013-07-12 14:23:00,82.2,50.2,30.71,ENE,68,1.0,11.0,33,0.00,,,0.00,meteohub,2013-07-12 20:23:00,
2013-07-12 14:28:00,80.8,50.5,30.68,WSW,248,4.0,9.0,35,0.00,,,0.00,meteohub,2013-07-12 20:28:00,
2013-07-12 14:33:00,80.1,50.7,30.68,WSW,248,5.0,6.0,36,0.00,,,0.00,meteohub,2013-07-12 20:33:00,
2013-07-12 14:39:00,79.3,50.9,30.68,WNW,292,6.0,8.0,37,0.00,,,0.00,meteohub,2013-07-12 20:39:00,
2013-07-12 14:44:00,77.9,51.6,30.68,SSE,158,17.0,17.0,40,0.00,,,0.00,meteohub,2013-07-12 20:44:00,
2013-07-12 14:50:00,77.2,51.6,30.68,NNW,338,3.0,11.0,41,0.00,,,0.00,meteohub,2013-07-12 20:50:00,
2013-07-12 14:55:00,76.6,51.3,30.68,South,180,10.0,17.0,41,0.00,,,0.00,meteohub,2013-07-12 20:55:00,
2013-07-12 15:00:00,75.6,50.9,30.71,SSW,202,3.0,13.0,42,0.00,,,0.00,meteohub,2013-07-12 21:00:00,
2013-07-12 15:05:00,72.7,51.8,30.71,SSW,202,4.0,13.0,48,0.00,,,0.00,meteohub,2013-07-12 21:05:00,
2013-07-12 15:11:00,71.1,55.0,30.71,SSW,202,4.0,13.0,57,0.00,,,0.00,meteohub,2013-07-12 21:11:00,
2013-07-12 15:16:00,69.4,56.3,30.71,NNW,338,4.0,13.0,63,0.00,,,0.00,meteohub,2013-07-12 21:16:00,
2013-07-12 15:22:00,68.9,57.0,30.71,WNW,292,10.0,13.0,66,0.00,,,0.00,meteohub,2013-07-12 21:22:00,
2013-07-12 15:27:00,68.5,57.2,30.71,WNW,292,8.0,13.0,67,0.00,,,0.00,meteohub,2013-07-12 21:27:00,
2013-07-12 15:32:00,68.4,57.0,30.71,SSW,202,4.0,13.0,67,0.00,,,0.00,meteohub,2013-07-12 21:32:00,
2013-07-12 15:37:00,68.0,57.0,30.71,ESE,112,5.0,13.0,68,0.00,,,0.00,meteohub,2013-07-12 21:37:00,
2013-07-12 15:42:00,68.2,55.9,30.71,WNW,292,3.0,13.0,65,0.00,,,0.00,meteohub,2013-07-12 21:42:00,
2013-07-12 15:47:00,68.4,57.0,30.71,SSE,158,4.0,6.0,67,0.00,,,0.00,meteohub,2013-07-12 21:47:00,
2013-07-12 15:52:00,68.0,57.4,30.71,NW,315,6.0,7.0,69,0.00,,,0.00,meteohub,2013-07-12 21:52:00,
2013-07-12 15:57:00,68.0,56.7,30.71,NNW,338,6.0,7.0,67,0.00,,,0.00,meteohub,2013-07-12 21:57:00,
2013-07-12 16:02:00,68.5,56.3,30.68,SSE,158,1.0,7.0,65,0.00,,,0.00,meteohub,2013-07-12 22:02:00,
2013-07-12 16:07:00,69.1,56.5,30.68,WSW,248,4.0,8.0,64,0.00,,,0.00,meteohub,2013-07-12 22:07:00,
2013-07-12 16:12:00,69.1,55.9,30.68,SSW,202,6.0,11.0,63,0.00,,,0.00,meteohub,2013-07-12 22:12:00,
2013-07-12 16:17:00,68.7,56.5,30.71,SSW,202,6.0,11.0,65,0.00,,,0.00,meteohub,2013-07-12 22:17:00,
2013-07-12 16:22:00,68.9,56.7,30.71,SSW,202,1.0,8.0,65,0.00,,,0.00,meteohub,2013-07-12 22:22:00,
2013-07-12 16:27:00,68.9,57.0,30.71,South,180,2.0,7.0,66,0.00,,,0.00,meteohub,2013-07-12 22:27:00,
2013-07-12 16:32:00,68.5,56.3,30.74,SSW,202,2.0,7.0,65,0.04,,,0.04,meteohub,2013-07-12 22:32:00,
2013-07-12 16:37:00,68.5,57.2,30.74,NNW,338,2.0,4.0,67,0.04,,,0.04,meteohub,2013-07-12 22:37:00,
2013-07-12 16:43:00,67.6,60.6,30.74,NNW,338,4.0,4.0,78,0.04,,,0.04,meteohub,2013-07-12 22:43:00,
2013-07-12 16:48:00,67.1,60.8,30.71,WNW,292,3.0,6.0,80,0.04,,,0.04,meteohub,2013-07-12 22:48:00,
2013-07-12 16:53:00,67.1,60.1,30.71,NNW,338,4.0,6.0,78,0.04,,,0.04,meteohub,2013-07-12 22:53:00,
2013-07-12 16:58:00,67.6,59.4,30.71,NNW,338,4.0,6.0,75,0.04,,,0.04,meteohub,2013-07-12 22:58:00,
2013-07-12 17:03:00,68.2,58.1,30.71,NNW,338,4.0,6.0,70,0.04,,,0.04,meteohub,2013-07-12 23:03:00,
2013-07-12 17:08:00,68.9,57.9,30.71,NW,315,2.0,6.0,68,0.04,,,0.04,meteohub,2013-07-12 23:08:00,
2013-07-12 17:13:00,69.6,56.8,30.71,NNE,22,1.0,6.0,64,0.04,,,0.04,meteohub,2013-07-12 23:13:00,
2013-07-12 17:19:00,70.5,56.8,30.71,NNW,338,2.0,6.0,62,0.04,,,0.04,meteohub,2013-07-12 23:19:00,
2013-07-12 17:24:00,70.9,57.2,30.71,WNW,292,3.0,6.0,62,0.04,,,0.04,meteohub,2013-07-12 23:24:00,
2013-07-12 17:29:00,70.7,58.8,30.71,NNW,338,1.0,6.0,66,0.00,,,0.04,meteohub,2013-07-12 23:29:00,
2013-07-12 17:34:00,70.7,59.5,30.71,NW,315,2.0,6.0,68,0.00,,,0.04,meteohub,2013-07-12 23:34:00,
2013-07-12 17:40:00,71.1,58.6,30.71,WNW,292,1.0,3.0,65,0.00,,,0.04,meteohub,2013-07-12 23:40:00,
2013-07-12 17:52:00,71.4,58.6,30.68,NNW,338,2.0,21.0,64,0.00,,,0.04,meteohub,2013-07-12 23:52:00,
2013-07-12 17:57:00,71.4,57.7,30.68,NNW,338,3.0,3.0,62,0.00,,,0.04,meteohub,2013-07-12 23:57:00,
2013-07-12 18:02:00,71.6,58.8,-100.00,NNE,22,2.0,3.0,64,0.00,,,0.04,meteohub,2013-07-13 00:02:00,
2013-07-12 18:08:00,71.6,58.8,30.68,SSE,158,1.0,3.0,64,0.00,,,0.00,meteohub,2013-07-13 00:08:00,
2013-07-12 18:13:00,71.6,58.8,30.68,ENE,68,0.0,3.0,64,0.00,,,0.00,meteohub,2013-07-13 00:13:00,
2013-07-12 18:18:00,71.6,59.2,30.71,WSW,248,0.0,2.0,65,0.00,,,0.00,meteohub,2013-07-13 00:18:00,
2013-07-12 18:24:00,71.4,59.5,30.71,SSE,158,1.0,2.0,66,0.00,,,0.00,meteohub,2013-07-13 00:24:00,
2013-07-12 18:29:00,71.1,58.6,30.71,ENE,68,2.0,2.0,65,0.00,,,0.00,meteohub,2013-07-13 00:29:00,
2013-07-12 18:34:00,70.9,58.5,30.71,East,90,0.0,2.0,65,0.00,,,0.00,meteohub,2013-07-13 00:34:00,
2013-07-12 18:40:00,70.9,58.5,30.71,SSW,202,1.0,2.0,65,0.00,,,0.00,meteohub,2013-07-13 00:40:00,
2013-07-12 18:45:00,70.5,59.5,30.71,East,90,2.0,3.0,68,0.00,,,0.00,meteohub,2013-07-13 00:45:00,
2013-07-12 18:51:00,70.3,58.8,30.71,ENE,68,2.0,3.0,67,0.00,,,0.00,meteohub,2013-07-13 00:51:00,
2013-07-12 18:56:00,70.9,59.0,30.71,NNE,22,0.0,3.0,66,0.00,,,0.00,meteohub,2013-07-13 00:56:00,
2013-07-12 19:02:00,71.4,59.5,30.68,NNE,22,0.0,3.0,66,0.00,,,0.00,meteohub,2013-07-13 01:02:00,
2013-07-12 19:07:00,71.8,58.5,30.68,North,0,3.0,3.0,63,0.00,,,0.00,meteohub,2013-07-13 01:07:00,
2013-07-12 19:12:00,72.0,57.7,30.68,ESE,112,3.0,5.0,61,0.00,,,0.00,meteohub,2013-07-13 01:12:00,
2013-07-12 19:18:00,72.0,58.3,30.71,WNW,292,3.0,6.0,62,0.00,,,0.00,meteohub,2013-07-13 01:18:00,
2013-07-12 19:23:00,71.8,58.1,30.71,NE,45,3.0,11.0,62,0.00,,,0.00,meteohub,2013-07-13 01:23:00,
2013-07-12 19:29:00,71.8,57.6,30.71,NNW,338,2.0,11.0,61,0.00,,,0.00,meteohub,2013-07-13 01:29:00,
2013-07-12 19:34:00,72.0,58.6,30.71,NNW,338,4.0,8.0,63,0.00,,,0.00,meteohub,2013-07-13 01:34:00,
2013-07-12 19:39:00,71.6,59.7,30.71,NNW,338,4.0,8.0,66,0.00,,,0.00,meteohub,2013-07-13 01:39:00,
2013-07-12 19:45:00,71.4,59.9,30.71,NNW,338,4.0,8.0,67,0.00,,,0.00,meteohub,2013-07-13 01:45:00,
2013-07-12 19:50:00,71.1,59.9,30.71,NNW,338,4.0,6.0,68,0.00,,,0.00,meteohub,2013-07-13 01:50:00,
2013-07-12 19:55:00,70.9,59.4,30.71,NNW,338,4.0,6.0,67,0.00,,,0.00,meteohub,2013-07-13 01:55:00,
2013-07-12 20:00:00,70.7,57.6,30.71,NNW,338,4.0,6.0,63,0.00,,,0.00,meteohub,2013-07-13 02:00:00,
2013-07-12 20:05:00,70.2,59.9,30.71,WNW,292,3.0,6.0,70,0.00,,,0.00,meteohub,2013-07-13 02:05:00,
2013-07-12 20:11:00,69.4,58.5,30.71,ENE,68,0.0,6.0,68,0.00,,,0.00,meteohub,2013-07-13 02:11:00,
2013-07-12 20:16:00,69.1,58.8,30.71,ESE,112,2.0,5.0,70,0.00,,,0.00,meteohub,2013-07-13 02:16:00,
2013-07-12 20:22:00,68.9,58.6,30.71,SSE,158,3.0,3.0,70,0.00,,,0.00,meteohub,2013-07-13 02:22:00,
2013-07-12 20:27:00,69.1,59.4,30.71,SSE,158,3.0,4.0,71,0.00,,,0.00,meteohub,2013-07-13 02:27:00,
2013-07-12 20:33:00,68.9,60.3,30.74,SSE,158,6.0,6.0,74,0.00,,,0.00,meteohub,2013-07-13 02:33:00,
2013-07-12 20:38:00,68.9,59.5,30.74,SE,135,4.0,6.0,72,0.00,,,0.00,meteohub,2013-07-13 02:38:00,
2013-07-12 20:43:00,68.9,60.6,30.74,SSE,158,8.0,13.0,75,0.00,,,0.00,meteohub,2013-07-13 02:43:00,
2013-07-12 20:48:00,68.5,60.6,30.74,SSW,202,4.0,13.0,76,0.00,,,0.00,meteohub,2013-07-13 02:48:00,
2013-07-12 20:53:00,68.2,59.9,30.74,ESE,112,2.0,13.0,75,0.00,,,0.00,meteohub,2013-07-13 02:53:00,
2013-07-12 20:59:00,67.8,59.9,30.71,ESE,112,3.0,11.0,76,0.00,,,0.00,meteohub,2013-07-13 02:59:00,
2013-07-12 21:04:00,67.8,60.3,30.71,ESE,112,3.0,6.0,77,0.00,,,0.00,meteohub,2013-07-13 03:04:00,
2013-07-12 21:09:00,67.8,59.9,30.71,ESE,112,3.0,5.0,76,0.00,,,0.00,meteohub,2013-07-13 03:09:00,
2013-07-12 21:15:00,67.6,59.7,30.71,ESE,112,2.0,6.0,76,0.00,,,0.00,meteohub,2013-07-13 03:15:00,
2013-07-12 21:20:00,67.3,59.5,30.71,ENE,68,2.0,6.0,76,0.00,,,0.00,meteohub,2013-07-13 03:20:00,
2013-07-12 21:25:00,67.5,58.8,30.71,NE,45,0.0,3.0,74,0.00,,,0.00,meteohub,2013-07-13 03:25:00,
2013-07-12 21:31:00,67.6,58.3,30.71,ESE,112,0.0,3.0,72,0.00,,,0.00,meteohub,2013-07-13 03:31:00,
2013-07-12 21:36:00,67.8,58.1,30.71,ENE,68,0.0,1.0,71,0.00,,,0.00,meteohub,2013-07-13 03:36:00,
2013-07-12 21:41:00,68.0,59.0,30.71,NNW,338,1.0,2.0,73,0.00,,,0.00,meteohub,2013-07-13 03:41:00,
2013-07-12 21:46:00,68.2,58.1,30.71,North,0,4.0,4.0,70,0.00,,,0.00,meteohub,2013-07-13 03:46:00,
2013-07-12 21:51:00,68.4,59.4,30.71,NNW,338,4.0,4.0,73,0.00,,,0.00,meteohub,2013-07-13 03:51:00,
2013-07-12 21:57:00,68.5,57.9,30.71,NNW,338,3.0,6.0,69,0.00,,,0.00,meteohub,2013-07-13 03:57:00,
2013-07-12 22:01:00,68.9,57.9,30.71,NNW,338,3.0,6.0,68,0.00,,,0.00,meteohub,2013-07-13 04:01:00,
2013-07-12 22:02:00,68.9,57.9,30.71,NNW,338,2.0,6.0,68,0.00,,,0.00,meteohub,2013-07-13 04:02:00,
2013-07-12 22:03:00,68.7,58.5,30.71,NNW,338,0.0,6.0,70,0.00,,,0.00,meteohub,2013-07-13 04:03:00,
2013-07-12 22:08:00,68.7,58.1,30.71,WNW,292,3.0,5.0,69,0.00,,,0.00,meteohub,2013-07-13 04:08:00,
2013-07-12 22:13:00,68.4,59.0,30.71,NNW,338,3.0,4.0,72,0.00,,,0.00,meteohub,2013-07-13 04:13:00,
2013-07-12 22:18:00,68.7,60.1,30.71,NNW,338,4.0,4.0,74,0.00,,,0.00,meteohub,2013-07-13 04:18:00,
2013-07-12 22:23:00,69.3,58.3,30.71,NNW,338,6.0,6.0,68,0.00,,,0.00,meteohub,2013-07-13 04:23:00,
2013-07-12 22:28:00,68.9,59.2,30.71,NNE,22,6.0,11.0,71,0.00,,,0.00,meteohub,2013-07-13 04:28:00,
2013-07-12 22:33:00,68.2,59.9,30.71,North,0,4.0,11.0,75,0.00,,,0.00,meteohub,2013-07-13 04:33:00,
2013-07-12 22:38:00,68.0,60.1,30.71,NNE,22,5.0,11.0,76,0.00,,,0.00,meteohub,2013-07-13 04:38:00,
2013-07-12 22:43:00,67.8,61.2,30.74,NNW,338,6.0,10.0,79,0.00,,,0.00,meteohub,2013-07-13 04:43:00,
2013-07-12 22:48:00,67.6,61.5,30.74,NNW,338,4.0,8.0,81,0.00,,,0.00,meteohub,2013-07-13 04:48:00,
2013-07-12 22:53:00,67.5,61.3,30.74,NNW,338,6.0,8.0,81,0.00,,,0.00,meteohub,2013-07-13 04:53:00,
2013-07-12 22:58:00,67.5,61.2,30.74,NNW,338,7.0,8.0,80,0.00,,,0.00,meteohub,2013-07-13 04:58:00,
2013-07-12 23:03:00,67.6,61.0,30.74,ENE,68,6.0,9.0,79,0.00,,,0.00,meteohub,2013-07-13 05:03:00,
2013-07-12 23:08:00,67.8,60.8,30.74,NNE,22,6.0,9.0,78,0.00,,,0.00,meteohub,2013-07-13 05:08:00,
2013-07-12 23:14:00,67.8,60.8,30.74,NNW,338,6.0,9.0,78,0.00,,,0.00,meteohub,2013-07-13 05:14:00,
2013-07-12 23:19:00,67.8,60.8,30.74,NNW,338,6.0,9.0,78,0.00,,,0.00,meteohub,2013-07-13 05:19:00,
2013-07-12 23:24:00,68.0,60.4,30.74,NNW,338,3.0,9.0,77,0.00,,,0.00,meteohub,2013-07-13 05:24:00,
2013-07-12 23:29:00,68.0,60.1,30.74,NNE,22,2.0,7.0,76,0.00,,,0.00,meteohub,2013-07-13 05:29:00,
2013-07-12 23:34:00,68.0,59.4,30.74,ENE,68,3.0,7.0,74,0.00,,,0.00,meteohub,2013-07-13 05:34:00,
2013-07-12 23:39:00,68.0,59.0,30.74,NNE,22,3.0,6.0,73,0.00,,,0.00,meteohub,2013-07-13 05:39:00,
2013-07-12 23:44:00,68.0,59.4,30.74,NNE,22,4.0,5.0,74,0.00,,,0.00,meteohub,2013-07-13 05:44:00,
2013-07-12 23:49:00,67.8,59.5,30.74,NNW,338,4.0,6.0,75,0.00,,,0.00,meteohub,2013-07-13 05:49:00,
2013-07-12 23:54:00,67.8,59.5,30.74,ENE,68,2.0,6.0,75,0.00,,,0.00,meteohub,2013-07-13 05:54:00,